sensor_id;sensor_type;location;lat;lon;timestamp;P1;durP1;ratioP1;P2;durP2;ratioP2
14116;SDS011;7137;51.436;6.544;2023-02-23T00:02:57;50.10;;;39.80;;
14116;SDS011;7137;51.436;6.544;2023-02-23T00:06:01;50.80;;;40.10;;
14116;SDS011;7137;51.436;6.544;2023-02-23T00:09:04;49.53;;;39.57;;
14116;SDS011;7137;51.436;6.544;2023-02-23T00:12:13;50.20;;;40.23;;
14116;SDS011;7137;51.436;6.544;2023-02-23T00:15:16;53.33;;;40.60;;
14116;SDS011;7137;51.436;6.544;2023-02-23T00:18:17;49.63;;;40.13;;
14116;SDS011;7137;51.436;6.544;2023-02-23T00:21:20;50.73;;;39.07;;
14116;SDS011;7137;51.436;6.544;2023-02-23T00:24:24;49.33;;;40.00;;
14116;SDS011;7137;51.436;6.544;2023-02-23T00:27:27;48.63;;;37.97;;
14116;SDS011;7137;51.436;6.544;2023-02-23T00:30:28;49.23;;;38.90;;
14116;SDS011;7137;51.436;6.544;2023-02-23T00:33:30;50.33;;;38.80;;
14116;SDS011;7137;51.436;6.544;2023-02-23T00:36:33;48.27;;;38.80;;
14116;SDS011;7137;51.436;6.544;2023-02-23T00:39:37;47.10;;;37.80;;
14116;SDS011;7137;51.436;6.544;2023-02-23T00:42:39;48.57;;;38.47;;
14116;SDS011;7137;51.436;6.544;2023-02-23T00:45:41;48.43;;;38.33;;
14116;SDS011;7137;51.436;6.544;2023-02-23T00:48:43;47.83;;;38.27;;
14116;SDS011;7137;51.436;6.544;2023-02-23T00:51:45;49.33;;;38.53;;
14116;SDS011;7137;51.436;6.544;2023-02-23T00:54:49;48.37;;;38.23;;
14116;SDS011;7137;51.436;6.544;2023-02-23T00:57:50;48.47;;;38.57;;
14116;SDS011;7137;51.436;6.544;2023-02-23T01:00:52;49.27;;;39.17;;
14116;SDS011;7137;51.436;6.544;2023-02-23T01:03:54;49.50;;;39.07;;
14116;SDS011;7137;51.436;6.544;2023-02-23T01:06:55;51.37;;;39.70;;
14116;SDS011;7137;51.436;6.544;2023-02-23T01:09:58;49.47;;;39.83;;
14116;SDS011;7137;51.436;6.544;2023-02-23T01:13:00;51.03;;;38.63;;
14116;SDS011;7137;51.436;6.544;2023-02-23T01:16:02;48.50;;;38.60;;
14116;SDS011;7137;51.436;6.544;2023-02-23T01:19:06;46.43;;;36.97;;
14116;SDS011;7137;51.436;6.544;2023-02-23T01:22:07;47.77;;;39.30;;
14116;SDS011;7137;51.436;6.544;2023-02-23T01:25:10;46.40;;;37.23;;
14116;SDS011;7137;51.436;6.544;2023-02-23T01:28:12;47.93;;;38.43;;
14116;SDS011;7137;51.436;6.544;2023-02-23T01:31:14;46.33;;;38.47;;
14116;SDS011;7137;51.436;6.544;2023-02-23T01:34:15;47.03;;;38.40;;
14116;SDS011;7137;51.436;6.544;2023-02-23T01:37:20;46.27;;;37.53;;
14116;SDS011;7137;51.436;6.544;2023-02-23T01:40:23;52.03;;;39.13;;
14116;SDS011;7137;51.436;6.544;2023-02-23T01:43:28;47.37;;;38.47;;
14116;SDS011;7137;51.436;6.544;2023-02-23T01:46:31;47.20;;;38.17;;
14116;SDS011;7137;51.436;6.544;2023-02-23T01:49:34;46.77;;;38.87;;
14116;SDS011;7137;51.436;6.544;2023-02-23T01:52:35;46.27;;;38.07;;
14116;SDS011;7137;51.436;6.544;2023-02-23T01:55:40;47.80;;;38.23;;
14116;SDS011;7137;51.436;6.544;2023-02-23T01:58:43;48.67;;;38.97;;
14116;SDS011;7137;51.436;6.544;2023-02-23T02:01:47;46.53;;;37.43;;
14116;SDS011;7137;51.436;6.544;2023-02-23T02:04:48;46.63;;;37.87;;
14116;SDS011;7137;51.436;6.544;2023-02-23T02:07:51;47.23;;;38.77;;
14116;SDS011;7137;51.436;6.544;2023-02-23T02:10:59;50.13;;;39.40;;
14116;SDS011;7137;51.436;6.544;2023-02-23T02:14:09;48.00;;;38.87;;
14116;SDS011;7137;51.436;6.544;2023-02-23T02:17:17;47.50;;;37.97;;
14116;SDS011;7137;51.436;6.544;2023-02-23T02:20:35;49.13;;;38.27;;
14116;SDS011;7137;51.436;6.544;2023-02-23T02:24:18;45.60;;;37.07;;
14116;SDS011;7137;51.436;6.544;2023-02-23T02:27:42;45.50;;;35.97;;
14116;SDS011;7137;51.436;6.544;2023-02-23T02:31:06;44.43;;;36.40;;
14116;SDS011;7137;51.436;6.544;2023-02-23T02:38:14;45.13;;;36.93;;
14116;SDS011;7137;51.436;6.544;2023-02-23T02:41:27;46.10;;;37.63;;
14116;SDS011;7137;51.436;6.544;2023-02-23T02:44:41;46.07;;;37.13;;
14116;SDS011;7137;51.436;6.544;2023-02-23T02:47:53;45.40;;;37.10;;
14116;SDS011;7137;51.436;6.544;2023-02-23T02:51:00;42.20;;;35.50;;
14116;SDS011;7137;51.436;6.544;2023-02-23T02:54:12;44.30;;;37.37;;
14116;SDS011;7137;51.436;6.544;2023-02-23T02:57:21;45.37;;;37.23;;
14116;SDS011;7137;51.436;6.544;2023-02-23T03:00:30;45.57;;;37.80;;
14116;SDS011;7137;51.436;6.544;2023-02-23T03:03:54;44.00;;;37.50;;
14116;SDS011;7137;51.436;6.544;2023-02-23T03:07:14;48.17;;;39.80;;
14116;SDS011;7137;51.436;6.544;2023-02-23T03:10:44;46.87;;;38.77;;
14116;SDS011;7137;51.436;6.544;2023-02-23T03:14:12;46.20;;;39.07;;
14116;SDS011;7137;51.436;6.544;2023-02-23T03:17:40;49.00;;;38.57;;
14116;SDS011;7137;51.436;6.544;2023-02-23T03:21:04;47.10;;;37.73;;
14116;SDS011;7137;51.436;6.544;2023-02-23T03:24:34;44.53;;;36.53;;
14116;SDS011;7137;51.436;6.544;2023-02-23T03:28:00;45.37;;;38.10;;
14116;SDS011;7137;51.436;6.544;2023-02-23T03:31:30;44.63;;;37.37;;
14116;SDS011;7137;51.436;6.544;2023-02-23T03:34:56;49.23;;;39.73;;
14116;SDS011;7137;51.436;6.544;2023-02-23T03:38:23;47.73;;;39.23;;
14116;SDS011;7137;51.436;6.544;2023-02-23T03:41:48;48.17;;;40.37;;
14116;SDS011;7137;51.436;6.544;2023-02-23T03:45:12;46.00;;;37.97;;
14116;SDS011;7137;51.436;6.544;2023-02-23T03:48:36;49.27;;;39.00;;
14116;SDS011;7137;51.436;6.544;2023-02-23T03:51:58;46.57;;;38.80;;
14116;SDS011;7137;51.436;6.544;2023-02-23T03:55:22;45.67;;;38.50;;
14116;SDS011;7137;51.436;6.544;2023-02-23T03:58:45;44.97;;;37.63;;
14116;SDS011;7137;51.436;6.544;2023-02-23T04:02:11;43.03;;;36.67;;
14116;SDS011;7137;51.436;6.544;2023-02-23T04:05:35;46.90;;;39.47;;
14116;SDS011;7137;51.436;6.544;2023-02-23T04:08:58;42.33;;;36.27;;
14116;SDS011;7137;51.436;6.544;2023-02-23T04:12:23;43.37;;;37.17;;
14116;SDS011;7137;51.436;6.544;2023-02-23T04:15:47;43.60;;;38.00;;
14116;SDS011;7137;51.436;6.544;2023-02-23T04:18:52;42.50;;;36.43;;
14116;SDS011;7137;51.436;6.544;2023-02-23T04:21:53;46.10;;;38.57;;
14116;SDS011;7137;51.436;6.544;2023-02-23T04:24:55;47.53;;;40.47;;
14116;SDS011;7137;51.436;6.544;2023-02-23T04:27:56;47.80;;;41.03;;
14116;SDS011;7137;51.436;6.544;2023-02-23T04:30:58;50.17;;;40.40;;
14116;SDS011;7137;51.436;6.544;2023-02-23T04:34:01;47.40;;;39.57;;
14116;SDS011;7137;51.436;6.544;2023-02-23T04:37:03;46.30;;;39.27;;
14116;SDS011;7137;51.436;6.544;2023-02-23T04:40:05;44.27;;;38.23;;
14116;SDS011;7137;51.436;6.544;2023-02-23T04:43:08;50.83;;;40.57;;
14116;SDS011;7137;51.436;6.544;2023-02-23T04:46:11;47.23;;;38.43;;
14116;SDS011;7137;51.436;6.544;2023-02-23T04:49:14;47.57;;;38.17;;
14116;SDS011;7137;51.436;6.544;2023-02-23T04:52:16;47.27;;;39.03;;
14116;SDS011;7137;51.436;6.544;2023-02-23T04:55:18;46.93;;;39.63;;
14116;SDS011;7137;51.436;6.544;2023-02-23T04:58:22;46.90;;;38.23;;
14116;SDS011;7137;51.436;6.544;2023-02-23T05:01:23;44.43;;;39.10;;
14116;SDS011;7137;51.436;6.544;2023-02-23T05:04:27;46.90;;;38.80;;
14116;SDS011;7137;51.436;6.544;2023-02-23T05:07:29;47.77;;;39.97;;
14116;SDS011;7137;51.436;6.544;2023-02-23T05:10:31;47.70;;;38.83;;
14116;SDS011;7137;51.436;6.544;2023-02-23T05:13:33;46.53;;;38.57;;
14116;SDS011;7137;51.436;6.544;2023-02-23T05:16:35;48.00;;;39.67;;
14116;SDS011;7137;51.436;6.544;2023-02-23T05:19:38;45.33;;;38.47;;
14116;SDS011;7137;51.436;6.544;2023-02-23T05:22:40;46.97;;;38.90;;
14116;SDS011;7137;51.436;6.544;2023-02-23T05:25:42;52.13;;;41.13;;
14116;SDS011;7137;51.436;6.544;2023-02-23T05:28:43;44.63;;;38.40;;
14116;SDS011;7137;51.436;6.544;2023-02-23T05:31:45;45.60;;;39.40;;
14116;SDS011;7137;51.436;6.544;2023-02-23T05:34:48;48.07;;;39.77;;
14116;SDS011;7137;51.436;6.544;2023-02-23T05:37:50;48.73;;;40.63;;
14116;SDS011;7137;51.436;6.544;2023-02-23T05:40:52;50.47;;;40.73;;
14116;SDS011;7137;51.436;6.544;2023-02-23T05:43:54;51.93;;;41.30;;
14116;SDS011;7137;51.436;6.544;2023-02-23T05:46:56;55.63;;;40.27;;
14116;SDS011;7137;51.436;6.544;2023-02-23T05:50:00;60.63;;;43.80;;
14116;SDS011;7137;51.436;6.544;2023-02-23T05:53:02;64.23;;;43.87;;
14116;SDS011;7137;51.436;6.544;2023-02-23T05:56:05;63.07;;;43.83;;
14116;SDS011;7137;51.436;6.544;2023-02-23T05:59:08;69.53;;;47.00;;
14116;SDS011;7137;51.436;6.544;2023-02-23T06:02:12;69.50;;;47.77;;
14116;SDS011;7137;51.436;6.544;2023-02-23T06:05:15;73.63;;;49.40;;
14116;SDS011;7137;51.436;6.544;2023-02-23T06:08:17;72.37;;;47.50;;
14116;SDS011;7137;51.436;6.544;2023-02-23T06:11:19;72.90;;;48.40;;
14116;SDS011;7137;51.436;6.544;2023-02-23T06:14:20;70.03;;;47.83;;
14116;SDS011;7137;51.436;6.544;2023-02-23T06:17:22;69.27;;;47.03;;
14116;SDS011;7137;51.436;6.544;2023-02-23T06:20:25;70.37;;;47.97;;
14116;SDS011;7137;51.436;6.544;2023-02-23T06:23:27;69.60;;;47.70;;
14116;SDS011;7137;51.436;6.544;2023-02-23T06:26:29;70.90;;;47.67;;
14116;SDS011;7137;51.436;6.544;2023-02-23T06:29:31;69.53;;;47.93;;
14116;SDS011;7137;51.436;6.544;2023-02-23T06:32:32;73.10;;;49.50;;
14116;SDS011;7137;51.436;6.544;2023-02-23T06:35:35;69.77;;;48.27;;
14116;SDS011;7137;51.436;6.544;2023-02-23T06:38:37;71.60;;;48.13;;
14116;SDS011;7137;51.436;6.544;2023-02-23T06:41:38;72.27;;;50.13;;
14116;SDS011;7137;51.436;6.544;2023-02-23T06:44:40;75.53;;;50.83;;
14116;SDS011;7137;51.436;6.544;2023-02-23T06:47:41;76.10;;;50.27;;
14116;SDS011;7137;51.436;6.544;2023-02-23T06:50:45;77.57;;;51.67;;
14116;SDS011;7137;51.436;6.544;2023-02-23T06:53:46;81.73;;;51.43;;
14116;SDS011;7137;51.436;6.544;2023-02-23T06:56:48;77.80;;;51.57;;
14116;SDS011;7137;51.436;6.544;2023-02-23T06:59:50;80.33;;;50.33;;
14116;SDS011;7137;51.436;6.544;2023-02-23T07:02:52;83.27;;;51.10;;
14116;SDS011;7137;51.436;6.544;2023-02-23T07:05:55;79.67;;;51.07;;
14116;SDS011;7137;51.436;6.544;2023-02-23T07:08:56;76.90;;;50.70;;
14116;SDS011;7137;51.436;6.544;2023-02-23T07:11:58;81.53;;;50.80;;
14116;SDS011;7137;51.436;6.544;2023-02-23T07:15:00;78.53;;;50.13;;
14116;SDS011;7137;51.436;6.544;2023-02-23T07:18:01;78.10;;;49.53;;
14116;SDS011;7137;51.436;6.544;2023-02-23T07:21:05;79.47;;;50.07;;
14116;SDS011;7137;51.436;6.544;2023-02-23T07:24:06;80.30;;;50.67;;
14116;SDS011;7137;51.436;6.544;2023-02-23T07:27:08;72.67;;;47.37;;
14116;SDS011;7137;51.436;6.544;2023-02-23T07:30:10;78.37;;;51.20;;
14116;SDS011;7137;51.436;6.544;2023-02-23T07:33:12;74.40;;;47.70;;
14116;SDS011;7137;51.436;6.544;2023-02-23T07:36:15;75.97;;;48.70;;
14116;SDS011;7137;51.436;6.544;2023-02-23T07:39:17;76.20;;;48.87;;
14116;SDS011;7137;51.436;6.544;2023-02-23T07:42:20;76.80;;;49.20;;
14116;SDS011;7137;51.436;6.544;2023-02-23T07:45:22;77.10;;;48.97;;
14116;SDS011;7137;51.436;6.544;2023-02-23T07:48:24;75.77;;;48.77;;
14116;SDS011;7137;51.436;6.544;2023-02-23T07:51:27;82.03;;;51.47;;
14116;SDS011;7137;51.436;6.544;2023-02-23T07:54:29;80.33;;;50.47;;
14116;SDS011;7137;51.436;6.544;2023-02-23T07:57:31;78.83;;;50.43;;
14116;SDS011;7137;51.436;6.544;2023-02-23T08:00:33;78.67;;;50.43;;
14116;SDS011;7137;51.436;6.544;2023-02-23T08:03:35;73.03;;;49.47;;
14116;SDS011;7137;51.436;6.544;2023-02-23T08:06:39;77.70;;;48.57;;
14116;SDS011;7137;51.436;6.544;2023-02-23T08:09:40;77.70;;;49.03;;
14116;SDS011;7137;51.436;6.544;2023-02-23T08:12:42;83.10;;;50.33;;
14116;SDS011;7137;51.436;6.544;2023-02-23T08:15:44;81.63;;;50.57;;
14116;SDS011;7137;51.436;6.544;2023-02-23T08:18:46;83.63;;;51.67;;
14116;SDS011;7137;51.436;6.544;2023-02-23T08:21:49;75.60;;;48.50;;
14116;SDS011;7137;51.436;6.544;2023-02-23T08:24:50;76.37;;;49.23;;
14116;SDS011;7137;51.436;6.544;2023-02-23T08:27:52;75.77;;;48.53;;
14116;SDS011;7137;51.436;6.544;2023-02-23T08:30:54;79.73;;;49.47;;
14116;SDS011;7137;51.436;6.544;2023-02-23T08:33:55;71.77;;;45.47;;
14116;SDS011;7137;51.436;6.544;2023-02-23T08:36:59;76.13;;;47.50;;
14116;SDS011;7137;51.436;6.544;2023-02-23T08:40:01;66.60;;;44.50;;
14116;SDS011;7137;51.436;6.544;2023-02-23T08:43:02;67.33;;;42.27;;
14116;SDS011;7137;51.436;6.544;2023-02-23T08:46:04;56.87;;;37.30;;
14116;SDS011;7137;51.436;6.544;2023-02-23T08:49:06;55.10;;;36.10;;
14116;SDS011;7137;51.436;6.544;2023-02-23T08:52:12;52.13;;;35.83;;
14116;SDS011;7137;51.436;6.544;2023-02-23T08:55:14;50.00;;;34.37;;
14116;SDS011;7137;51.436;6.544;2023-02-23T08:58:17;49.60;;;33.57;;
14116;SDS011;7137;51.436;6.544;2023-02-23T09:01:19;51.07;;;34.90;;
14116;SDS011;7137;51.436;6.544;2023-02-23T09:04:21;51.20;;;34.70;;
14116;SDS011;7137;51.436;6.544;2023-02-23T09:07:24;51.63;;;34.27;;
14116;SDS011;7137;51.436;6.544;2023-02-23T09:10:26;52.77;;;34.50;;
14116;SDS011;7137;51.436;6.544;2023-02-23T09:13:28;49.27;;;35.40;;
14116;SDS011;7137;51.436;6.544;2023-02-23T09:16:29;49.80;;;34.60;;
14116;SDS011;7137;51.436;6.544;2023-02-23T09:19:31;48.60;;;34.00;;
14116;SDS011;7137;51.436;6.544;2023-02-23T09:22:34;49.80;;;33.23;;
14116;SDS011;7137;51.436;6.544;2023-02-23T09:25:38;49.77;;;34.13;;
14116;SDS011;7137;51.436;6.544;2023-02-23T09:28:42;47.10;;;32.50;;
14116;SDS011;7137;51.436;6.544;2023-02-23T09:31:43;48.33;;;32.63;;
14116;SDS011;7137;51.436;6.544;2023-02-23T09:34:45;48.10;;;33.30;;
14116;SDS011;7137;51.436;6.544;2023-02-23T09:37:49;47.63;;;31.70;;
14116;SDS011;7137;51.436;6.544;2023-02-23T09:40:53;49.27;;;33.77;;
14116;SDS011;7137;51.436;6.544;2023-02-23T09:43:57;50.73;;;34.47;;
14116;SDS011;7137;51.436;6.544;2023-02-23T09:47:09;51.93;;;35.23;;
14116;SDS011;7137;51.436;6.544;2023-02-23T09:50:22;52.57;;;35.23;;
14116;SDS011;7137;51.436;6.544;2023-02-23T09:53:31;50.63;;;35.30;;
14116;SDS011;7137;51.436;6.544;2023-02-23T09:56:38;50.70;;;35.73;;
14116;SDS011;7137;51.436;6.544;2023-02-23T09:59:43;53.20;;;37.23;;
14116;SDS011;7137;51.436;6.544;2023-02-23T10:02:50;50.17;;;35.13;;
14116;SDS011;7137;51.436;6.544;2023-02-23T10:06:05;50.67;;;34.67;;
14116;SDS011;7137;51.436;6.544;2023-02-23T10:09:14;47.70;;;33.83;;
14116;SDS011;7137;51.436;6.544;2023-02-23T10:12:21;46.47;;;30.97;;
14116;SDS011;7137;51.436;6.544;2023-02-23T10:15:32;42.33;;;29.73;;
14116;SDS011;7137;51.436;6.544;2023-02-23T10:18:42;38.27;;;26.57;;
14116;SDS011;7137;51.436;6.544;2023-02-23T10:21:53;37.40;;;26.67;;
14116;SDS011;7137;51.436;6.544;2023-02-23T10:24:59;38.23;;;27.07;;
14116;SDS011;7137;51.436;6.544;2023-02-23T10:28:04;40.47;;;29.27;;
14116;SDS011;7137;51.436;6.544;2023-02-23T10:31:17;40.90;;;29.30;;
14116;SDS011;7137;51.436;6.544;2023-02-23T10:34:27;41.73;;;29.07;;
14116;SDS011;7137;51.436;6.544;2023-02-23T10:37:30;41.50;;;27.77;;
14116;SDS011;7137;51.436;6.544;2023-02-23T10:40:33;40.43;;;27.67;;
14116;SDS011;7137;51.436;6.544;2023-02-23T10:43:35;36.70;;;28.03;;
14116;SDS011;7137;51.436;6.544;2023-02-23T10:46:37;38.67;;;28.17;;
14116;SDS011;7137;51.436;6.544;2023-02-23T10:49:42;37.23;;;27.47;;
14116;SDS011;7137;51.436;6.544;2023-02-23T10:52:46;35.03;;;25.23;;
14116;SDS011;7137;51.436;6.544;2023-02-23T10:56:00;34.83;;;24.93;;
14116;SDS011;7137;51.436;6.544;2023-02-23T10:59:14;34.73;;;24.80;;
14116;SDS011;7137;51.436;6.544;2023-02-23T11:02:21;33.43;;;23.83;;
14116;SDS011;7137;51.436;6.544;2023-02-23T11:05:26;33.37;;;24.17;;
14116;SDS011;7137;51.436;6.544;2023-02-23T11:08:32;33.37;;;24.63;;
14116;SDS011;7137;51.436;6.544;2023-02-23T11:11:36;33.63;;;25.10;;
14116;SDS011;7137;51.436;6.544;2023-02-23T11:14:38;34.50;;;25.03;;
14116;SDS011;7137;51.436;6.544;2023-02-23T11:17:39;34.43;;;25.13;;
14116;SDS011;7137;51.436;6.544;2023-02-23T11:20:41;33.23;;;24.63;;
14116;SDS011;7137;51.436;6.544;2023-02-23T11:23:43;34.40;;;25.00;;
14116;SDS011;7137;51.436;6.544;2023-02-23T11:26:46;34.03;;;25.13;;
14116;SDS011;7137;51.436;6.544;2023-02-23T11:29:50;36.00;;;25.23;;
14116;SDS011;7137;51.436;6.544;2023-02-23T11:32:56;34.17;;;24.50;;
14116;SDS011;7137;51.436;6.544;2023-02-23T11:36:15;32.03;;;23.37;;
14116;SDS011;7137;51.436;6.544;2023-02-23T11:39:25;33.10;;;23.53;;
14116;SDS011;7137;51.436;6.544;2023-02-23T11:42:29;32.60;;;23.47;;
14116;SDS011;7137;51.436;6.544;2023-02-23T11:45:32;33.60;;;23.80;;
14116;SDS011;7137;51.436;6.544;2023-02-23T11:48:41;33.63;;;22.83;;
14116;SDS011;7137;51.436;6.544;2023-02-23T11:51:49;34.03;;;23.67;;
14116;SDS011;7137;51.436;6.544;2023-02-23T11:54:54;33.37;;;22.33;;
14116;SDS011;7137;51.436;6.544;2023-02-23T11:58:16;31.37;;;21.80;;
14116;SDS011;7137;51.436;6.544;2023-02-23T12:01:32;30.63;;;22.30;;
14116;SDS011;7137;51.436;6.544;2023-02-23T12:04:38;29.53;;;21.67;;
14116;SDS011;7137;51.436;6.544;2023-02-23T12:07:47;29.87;;;21.13;;
14116;SDS011;7137;51.436;6.544;2023-02-23T12:10:56;28.00;;;20.40;;
14116;SDS011;7137;51.436;6.544;2023-02-23T12:14:02;29.33;;;21.10;;
14116;SDS011;7137;51.436;6.544;2023-02-23T12:17:11;28.80;;;21.30;;
14116;SDS011;7137;51.436;6.544;2023-02-23T12:20:19;30.77;;;21.80;;
14116;SDS011;7137;51.436;6.544;2023-02-23T12:23:25;29.50;;;20.90;;
14116;SDS011;7137;51.436;6.544;2023-02-23T12:26:30;28.77;;;20.87;;
14116;SDS011;7137;51.436;6.544;2023-02-23T12:29:40;26.50;;;19.37;;
14116;SDS011;7137;51.436;6.544;2023-02-23T12:32:54;24.53;;;19.03;;
14116;SDS011;7137;51.436;6.544;2023-02-23T12:36:00;27.27;;;19.73;;
14116;SDS011;7137;51.436;6.544;2023-02-23T12:39:05;27.50;;;19.67;;
14116;SDS011;7137;51.436;6.544;2023-02-23T12:42:19;27.33;;;19.77;;
14116;SDS011;7137;51.436;6.544;2023-02-23T12:45:31;26.00;;;19.97;;
14116;SDS011;7137;51.436;6.544;2023-02-23T12:48:41;28.13;;;20.83;;
14116;SDS011;7137;51.436;6.544;2023-02-23T12:51:49;28.80;;;21.00;;
14116;SDS011;7137;51.436;6.544;2023-02-23T12:54:53;29.40;;;21.07;;
14116;SDS011;7137;51.436;6.544;2023-02-23T12:57:56;28.33;;;21.03;;
14116;SDS011;7137;51.436;6.544;2023-02-23T13:01:07;31.47;;;22.50;;
14116;SDS011;7137;51.436;6.544;2023-02-23T13:04:15;28.57;;;21.17;;
14116;SDS011;7137;51.436;6.544;2023-02-23T13:07:28;29.87;;;21.80;;
14116;SDS011;7137;51.436;6.544;2023-02-23T13:10:38;30.90;;;22.40;;
14116;SDS011;7137;51.436;6.544;2023-02-23T13:13:47;31.77;;;22.80;;
14116;SDS011;7137;51.436;6.544;2023-02-23T13:16:58;31.70;;;23.03;;
14116;SDS011;7137;51.436;6.544;2023-02-23T13:20:06;34.57;;;24.37;;
14116;SDS011;7137;51.436;6.544;2023-02-23T13:23:20;32.07;;;23.57;;
14116;SDS011;7137;51.436;6.544;2023-02-23T13:26:31;32.90;;;23.67;;
14116;SDS011;7137;51.436;6.544;2023-02-23T13:29:40;34.40;;;24.10;;
14116;SDS011;7137;51.436;6.544;2023-02-23T13:32:45;33.57;;;24.17;;
14116;SDS011;7137;51.436;6.544;2023-02-23T13:35:47;34.07;;;24.57;;
14116;SDS011;7137;51.436;6.544;2023-02-23T13:38:54;33.23;;;24.30;;
14116;SDS011;7137;51.436;6.544;2023-02-23T13:42:30;36.33;;;24.87;;
14116;SDS011;7137;51.436;6.544;2023-02-23T13:45:47;38.83;;;25.97;;
14116;SDS011;7137;51.436;6.544;2023-02-23T13:48:56;35.70;;;25.93;;
14116;SDS011;7137;51.436;6.544;2023-02-23T13:52:08;35.10;;;25.30;;
14116;SDS011;7137;51.436;6.544;2023-02-23T13:55:32;35.50;;;25.90;;
14116;SDS011;7137;51.436;6.544;2023-02-23T13:58:37;35.90;;;25.17;;
14116;SDS011;7137;51.436;6.544;2023-02-23T14:01:47;38.63;;;25.73;;
14116;SDS011;7137;51.436;6.544;2023-02-23T14:04:53;37.43;;;25.97;;
14116;SDS011;7137;51.436;6.544;2023-02-23T14:07:58;36.73;;;25.17;;
14116;SDS011;7137;51.436;6.544;2023-02-23T14:11:02;36.60;;;25.23;;
14116;SDS011;7137;51.436;6.544;2023-02-23T14:14:05;37.80;;;25.50;;
14116;SDS011;7137;51.436;6.544;2023-02-23T14:20:43;31.80;;;22.43;;
14116;SDS011;7137;51.436;6.544;2023-02-23T14:23:53;31.20;;;22.50;;
14116;SDS011;7137;51.436;6.544;2023-02-23T14:27:13;33.27;;;22.77;;
14116;SDS011;7137;51.436;6.544;2023-02-23T14:30:25;33.10;;;23.10;;
14116;SDS011;7137;51.436;6.544;2023-02-23T14:33:43;32.63;;;23.67;;
14116;SDS011;7137;51.436;6.544;2023-02-23T14:36:52;31.33;;;22.03;;
14116;SDS011;7137;51.436;6.544;2023-02-23T14:39:55;30.33;;;22.00;;
14116;SDS011;7137;51.436;6.544;2023-02-23T14:43:01;30.80;;;21.33;;
14116;SDS011;7137;51.436;6.544;2023-02-23T14:46:06;32.30;;;22.37;;
14116;SDS011;7137;51.436;6.544;2023-02-23T14:49:14;29.00;;;21.30;;
14116;SDS011;7137;51.436;6.544;2023-02-23T14:52:22;31.27;;;21.40;;
14116;SDS011;7137;51.436;6.544;2023-02-23T14:55:26;33.23;;;22.67;;
14116;SDS011;7137;51.436;6.544;2023-02-23T14:58:30;29.30;;;21.43;;
14116;SDS011;7137;51.436;6.544;2023-02-23T15:01:33;30.30;;;21.53;;
14116;SDS011;7137;51.436;6.544;2023-02-23T15:04:36;28.63;;;20.60;;
14116;SDS011;7137;51.436;6.544;2023-02-23T15:07:40;28.50;;;19.90;;
14116;SDS011;7137;51.436;6.544;2023-02-23T15:10:44;28.17;;;21.13;;
14116;SDS011;7137;51.436;6.544;2023-02-23T15:13:48;28.47;;;20.27;;
14116;SDS011;7137;51.436;6.544;2023-02-23T15:16:54;29.50;;;20.50;;
14116;SDS011;7137;51.436;6.544;2023-02-23T15:19:57;30.50;;;21.13;;
14116;SDS011;7137;51.436;6.544;2023-02-23T15:23:03;28.43;;;21.00;;
14116;SDS011;7137;51.436;6.544;2023-02-23T15:26:14;29.20;;;19.57;;
14116;SDS011;7137;51.436;6.544;2023-02-23T15:29:17;29.33;;;20.07;;
14116;SDS011;7137;51.436;6.544;2023-02-23T15:32:21;26.50;;;18.73;;
14116;SDS011;7137;51.436;6.544;2023-02-23T15:35:24;26.37;;;18.03;;
14116;SDS011;7137;51.436;6.544;2023-02-23T15:38:28;26.70;;;16.50;;
14116;SDS011;7137;51.436;6.544;2023-02-23T15:41:34;23.27;;;15.67;;
14116;SDS011;7137;51.436;6.544;2023-02-23T15:44:38;24.80;;;16.17;;
14116;SDS011;7137;51.436;6.544;2023-02-23T15:47:40;25.60;;;15.07;;
14116;SDS011;7137;51.436;6.544;2023-02-23T15:50:43;23.20;;;15.33;;
14116;SDS011;7137;51.436;6.544;2023-02-23T15:53:50;22.50;;;15.27;;
14116;SDS011;7137;51.436;6.544;2023-02-23T15:56:54;21.23;;;14.70;;
14116;SDS011;7137;51.436;6.544;2023-02-23T15:59:57;22.23;;;14.97;;
14116;SDS011;7137;51.436;6.544;2023-02-23T16:03:02;23.83;;;15.53;;
14116;SDS011;7137;51.436;6.544;2023-02-23T16:06:07;22.63;;;14.80;;
14116;SDS011;7137;51.436;6.544;2023-02-23T16:09:25;21.77;;;14.63;;
14116;SDS011;7137;51.436;6.544;2023-02-23T16:12:29;24.27;;;15.47;;
14116;SDS011;7137;51.436;6.544;2023-02-23T16:15:34;23.37;;;15.63;;
14116;SDS011;7137;51.436;6.544;2023-02-23T16:18:38;21.67;;;15.17;;
14116;SDS011;7137;51.436;6.544;2023-02-23T16:21:42;22.03;;;14.77;;
14116;SDS011;7137;51.436;6.544;2023-02-23T16:24:57;22.77;;;14.33;;
14116;SDS011;7137;51.436;6.544;2023-02-23T16:28:02;21.17;;;14.10;;
14116;SDS011;7137;51.436;6.544;2023-02-23T16:31:09;22.53;;;14.33;;
14116;SDS011;7137;51.436;6.544;2023-02-23T16:34:17;21.60;;;13.43;;
14116;SDS011;7137;51.436;6.544;2023-02-23T16:37:22;22.03;;;13.10;;
14116;SDS011;7137;51.436;6.544;2023-02-23T16:40:28;20.20;;;12.10;;
14116;SDS011;7137;51.436;6.544;2023-02-23T16:43:30;20.20;;;12.33;;
14116;SDS011;7137;51.436;6.544;2023-02-23T16:46:53;18.13;;;12.23;;
14116;SDS011;7137;51.436;6.544;2023-02-23T16:49:57;20.90;;;12.23;;
14116;SDS011;7137;51.436;6.544;2023-02-23T16:52:59;20.13;;;12.80;;
14116;SDS011;7137;51.436;6.544;2023-02-23T16:56:03;19.23;;;12.33;;
14116;SDS011;7137;51.436;6.544;2023-02-23T16:59:12;20.27;;;12.03;;
14116;SDS011;7137;51.436;6.544;2023-02-23T17:02:17;19.37;;;11.97;;
14116;SDS011;7137;51.436;6.544;2023-02-23T17:05:22;19.87;;;12.20;;
14116;SDS011;7137;51.436;6.544;2023-02-23T17:08:24;23.47;;;12.73;;
14116;SDS011;7137;51.436;6.544;2023-02-23T17:11:27;20.23;;;12.50;;
14116;SDS011;7137;51.436;6.544;2023-02-23T17:14:28;19.90;;;12.17;;
14116;SDS011;7137;51.436;6.544;2023-02-23T17:17:31;19.33;;;12.73;;
14116;SDS011;7137;51.436;6.544;2023-02-23T17:20:33;21.13;;;12.87;;
14116;SDS011;7137;51.436;6.544;2023-02-23T17:23:36;21.13;;;13.77;;
14116;SDS011;7137;51.436;6.544;2023-02-23T17:26:42;21.93;;;12.57;;
14116;SDS011;7137;51.436;6.544;2023-02-23T17:29:44;20.10;;;12.40;;
14116;SDS011;7137;51.436;6.544;2023-02-23T17:32:47;20.37;;;12.13;;
14116;SDS011;7137;51.436;6.544;2023-02-23T17:35:49;19.83;;;13.07;;
14116;SDS011;7137;51.436;6.544;2023-02-23T17:38:51;21.50;;;12.83;;
14116;SDS011;7137;51.436;6.544;2023-02-23T17:41:58;22.50;;;13.17;;
14116;SDS011;7137;51.436;6.544;2023-02-23T17:45:00;23.40;;;13.57;;
14116;SDS011;7137;51.436;6.544;2023-02-23T17:48:03;21.03;;;13.07;;
14116;SDS011;7137;51.436;6.544;2023-02-23T17:51:06;22.00;;;12.23;;
14116;SDS011;7137;51.436;6.544;2023-02-23T17:54:09;20.43;;;12.47;;
14116;SDS011;7137;51.436;6.544;2023-02-23T17:57:12;20.90;;;12.77;;
14116;SDS011;7137;51.436;6.544;2023-02-23T18:00:15;20.03;;;12.17;;
14116;SDS011;7137;51.436;6.544;2023-02-23T18:03:18;17.50;;;11.30;;
14116;SDS011;7137;51.436;6.544;2023-02-23T18:06:19;17.57;;;11.20;;
14116;SDS011;7137;51.436;6.544;2023-02-23T18:09:21;19.80;;;11.27;;
14116;SDS011;7137;51.436;6.544;2023-02-23T18:12:24;18.10;;;11.00;;
14116;SDS011;7137;51.436;6.544;2023-02-23T18:15:25;18.90;;;10.47;;
14116;SDS011;7137;51.436;6.544;2023-02-23T18:18:28;17.50;;;10.77;;
14116;SDS011;7137;51.436;6.544;2023-02-23T18:21:29;19.47;;;10.73;;
14116;SDS011;7137;51.436;6.544;2023-02-23T18:24:33;16.80;;;10.30;;
14116;SDS011;7137;51.436;6.544;2023-02-23T18:27:37;17.60;;;10.57;;
14116;SDS011;7137;51.436;6.544;2023-02-23T18:30:38;17.83;;;10.70;;
14116;SDS011;7137;51.436;6.544;2023-02-23T18:33:40;19.10;;;10.17;;